sensor_id;sensor_type;location;lat;lon;timestamp;P1;durP1;ratioP1;P2;durP2;ratioP2
22164;SDS011;11248;52.512;13.520;2022-10-31T00:01:41;20.85;;;14.75;;
22164;SDS011;11248;52.512;13.520;2022-10-31T00:04:07;22.33;;;14.77;;
22164;SDS011;11248;52.512;13.520;2022-10-31T00:06:33;21.38;;;14.32;;
22164;SDS011;11248;52.512;13.520;2022-10-31T00:08:59;20.17;;;15.15;;
22164;SDS011;11248;52.512;13.520;2022-10-31T00:11:26;22.10;;;14.77;;
22164;SDS011;11248;52.512;13.520;2022-10-31T00:13:52;22.52;;;14.45;;
22164;SDS011;11248;52.512;13.520;2022-10-31T00:16:22;18.80;;;13.60;;
22164;SDS011;11248;52.512;13.520;2022-10-31T00:18:49;20.13;;;14.43;;
22164;SDS011;11248;52.512;13.520;2022-10-31T00:21:15;20.10;;;13.38;;
22164;SDS011;11248;52.512;13.520;2022-10-31T00:23:41;20.23;;;12.82;;
22164;SDS011;11248;52.512;13.520;2022-10-31T00:26:07;17.15;;;12.93;;
22164;SDS011;11248;52.512;13.520;2022-10-31T00:28:33;22.08;;;12.35;;
22164;SDS011;11248;52.512;13.520;2022-10-31T00:30:59;18.92;;;12.32;;
22164;SDS011;11248;52.512;13.520;2022-10-31T00:33:25;18.52;;;12.52;;
22164;SDS011;11248;52.512;13.520;2022-10-31T00:35:51;17.00;;;12.05;;
22164;SDS011;11248;52.512;13.520;2022-10-31T00:38:17;17.13;;;12.45;;
22164;SDS011;11248;52.512;13.520;2022-10-31T00:40:43;18.33;;;12.18;;
22164;SDS011;11248;52.512;13.520;2022-10-31T00:43:09;19.52;;;12.55;;
22164;SDS011;11248;52.512;13.520;2022-10-31T00:45:35;19.15;;;12.90;;
22164;SDS011;11248;52.512;13.520;2022-10-31T00:48:01;17.52;;;12.82;;
22164;SDS011;11248;52.512;13.520;2022-10-31T00:50:27;17.30;;;12.75;;
22164;SDS011;11248;52.512;13.520;2022-10-31T00:52:53;18.52;;;13.30;;
22164;SDS011;11248;52.512;13.520;2022-10-31T00:55:19;19.27;;;13.10;;
22164;SDS011;11248;52.512;13.520;2022-10-31T00:57:48;18.83;;;13.55;;
22164;SDS011;11248;52.512;13.520;2022-10-31T01:00:14;16.15;;;11.65;;
22164;SDS011;11248;52.512;13.520;2022-10-31T01:02:40;18.02;;;12.65;;
22164;SDS011;11248;52.512;13.520;2022-10-31T01:05:06;18.88;;;12.35;;
22164;SDS011;11248;52.512;13.520;2022-10-31T01:07:35;19.30;;;13.55;;
22164;SDS011;11248;52.512;13.520;2022-10-31T01:10:01;14.57;;;11.98;;
22164;SDS011;11248;52.512;13.520;2022-10-31T01:12:27;15.52;;;11.88;;
22164;SDS011;11248;52.512;13.520;2022-10-31T01:14:53;18.67;;;13.00;;
22164;SDS011;11248;52.512;13.520;2022-10-31T01:17:19;18.33;;;12.18;;
22164;SDS011;11248;52.512;13.520;2022-10-31T01:19:45;15.30;;;11.73;;
22164;SDS011;11248;52.512;13.520;2022-10-31T01:22:10;20.05;;;12.25;;
22164;SDS011;11248;52.512;13.520;2022-10-31T01:24:36;18.58;;;12.07;;
22164;SDS011;11248;52.512;13.520;2022-10-31T01:27:02;18.67;;;12.30;;
22164;SDS011;11248;52.512;13.520;2022-10-31T01:29:28;17.70;;;12.63;;
22164;SDS011;11248;52.512;13.520;2022-10-31T01:31:54;18.00;;;12.60;;
22164;SDS011;11248;52.512;13.520;2022-10-31T01:34:20;19.55;;;13.20;;
22164;SDS011;11248;52.512;13.520;2022-10-31T01:36:46;18.83;;;12.27;;
22164;SDS011;11248;52.512;13.520;2022-10-31T01:39:15;16.27;;;11.85;;
22164;SDS011;11248;52.512;13.520;2022-10-31T01:41:42;15.32;;;11.48;;
22164;SDS011;11248;52.512;13.520;2022-10-31T01:46:38;18.40;;;12.60;;
22164;SDS011;11248;52.512;13.520;2022-10-31T01:49:10;20.92;;;13.35;;
22164;SDS011;11248;52.512;13.520;2022-10-31T01:51:38;21.13;;;13.32;;
22164;SDS011;11248;52.512;13.520;2022-10-31T01:54:07;25.50;;;14.38;;
22164;SDS011;11248;52.512;13.520;2022-10-31T01:56:33;25.80;;;14.60;;
22164;SDS011;11248;52.512;13.520;2022-10-31T01:59:01;18.58;;;12.93;;
22164;SDS011;11248;52.512;13.520;2022-10-31T02:01:27;20.63;;;13.95;;
22164;SDS011;11248;52.512;13.520;2022-10-31T02:03:54;18.98;;;12.75;;
22164;SDS011;11248;52.512;13.520;2022-10-31T02:06:22;19.58;;;13.65;;
22164;SDS011;11248;52.512;13.520;2022-10-31T02:08:52;20.90;;;13.15;;
22164;SDS011;11248;52.512;13.520;2022-10-31T02:11:19;20.95;;;13.07;;
22164;SDS011;11248;52.512;13.520;2022-10-31T02:13:45;18.23;;;12.48;;
22164;SDS011;11248;52.512;13.520;2022-10-31T02:16:12;21.48;;;13.13;;
22164;SDS011;11248;52.512;13.520;2022-10-31T02:18:38;23.05;;;13.07;;
22164;SDS011;11248;52.512;13.520;2022-10-31T02:23:33;20.35;;;12.63;;
22164;SDS011;11248;52.512;13.520;2022-10-31T02:34:01;21.92;;;12.15;;
22164;SDS011;11248;52.512;13.520;2022-10-31T02:36:31;18.15;;;12.85;;
22164;SDS011;11248;52.512;13.520;2022-10-31T02:44:11;17.75;;;12.40;;
22164;SDS011;11248;52.512;13.520;2022-10-31T02:46:45;18.17;;;12.10;;
22164;SDS011;11248;52.512;13.520;2022-10-31T02:49:57;15.68;;;11.55;;
22164;SDS011;11248;52.512;13.520;2022-10-31T02:52:02;16.33;;;11.82;;
22164;SDS011;11248;52.512;13.520;2022-10-31T02:54:38;15.90;;;11.57;;
22164;SDS011;11248;52.512;13.520;2022-10-31T02:57:05;17.83;;;12.13;;
22164;SDS011;11248;52.512;13.520;2022-10-31T02:59:33;18.75;;;12.00;;
22164;SDS011;11248;52.512;13.520;2022-10-31T03:02:05;17.52;;;12.20;;
22164;SDS011;11248;52.512;13.520;2022-10-31T03:04:54;19.73;;;11.80;;
22164;SDS011;11248;52.512;13.520;2022-10-31T03:07:29;15.98;;;11.55;;
22164;SDS011;11248;52.512;13.520;2022-10-31T03:10:17;15.88;;;11.50;;
22164;SDS011;11248;52.512;13.520;2022-10-31T03:15:21;15.15;;;11.45;;
22164;SDS011;11248;52.512;13.520;2022-10-31T03:17:54;17.35;;;12.02;;
22164;SDS011;11248;52.512;13.520;2022-10-31T03:20:22;16.33;;;11.18;;
22164;SDS011;11248;52.512;13.520;2022-10-31T03:22:49;16.55;;;11.57;;
22164;SDS011;11248;52.512;13.520;2022-10-31T03:25:16;16.17;;;10.98;;
22164;SDS011;11248;52.512;13.520;2022-10-31T03:27:42;23.17;;;12.13;;
22164;SDS011;11248;52.512;13.520;2022-10-31T03:30:09;20.98;;;11.00;;
22164;SDS011;11248;52.512;13.520;2022-10-31T03:32:36;15.68;;;11.13;;
22164;SDS011;11248;52.512;13.520;2022-10-31T03:35:04;13.45;;;10.23;;
22164;SDS011;11248;52.512;13.520;2022-10-31T03:37:32;17.23;;;11.13;;
22164;SDS011;11248;52.512;13.520;2022-10-31T03:39:58;15.50;;;11.23;;
22164;SDS011;11248;52.512;13.520;2022-10-31T03:42:25;17.50;;;10.98;;
22164;SDS011;11248;52.512;13.520;2022-10-31T03:45:02;16.88;;;11.15;;
22164;SDS011;11248;52.512;13.520;2022-10-31T03:47:29;21.55;;;12.27;;
22164;SDS011;11248;52.512;13.520;2022-10-31T03:49:56;15.65;;;10.52;;
22164;SDS011;11248;52.512;13.520;2022-10-31T03:55:03;11.82;;;8.75;;
22164;SDS011;11248;52.512;13.520;2022-10-31T03:57:33;18.10;;;10.27;;
22164;SDS011;11248;52.512;13.520;2022-10-31T04:00:04;17.25;;;10.50;;
22164;SDS011;11248;52.512;13.520;2022-10-31T04:02:31;15.77;;;10.18;;
22164;SDS011;11248;52.512;13.520;2022-10-31T04:04:57;14.48;;;10.02;;
22164;SDS011;11248;52.512;13.520;2022-10-31T04:07:25;11.98;;;9.45;;
22164;SDS011;11248;52.512;13.520;2022-10-31T04:09:52;15.45;;;9.55;;
22164;SDS011;11248;52.512;13.520;2022-10-31T04:12:18;17.35;;;10.63;;
22164;SDS011;11248;52.512;13.520;2022-10-31T04:14:46;16.83;;;10.48;;
22164;SDS011;11248;52.512;13.520;2022-10-31T04:17:14;15.35;;;9.60;;
22164;SDS011;11248;52.512;13.520;2022-10-31T04:19:41;15.25;;;9.52;;
22164;SDS011;11248;52.512;13.520;2022-10-31T04:22:07;15.65;;;9.32;;
22164;SDS011;11248;52.512;13.520;2022-10-31T04:24:33;12.27;;;9.00;;
22164;SDS011;11248;52.512;13.520;2022-10-31T04:26:59;12.57;;;9.13;;
22164;SDS011;11248;52.512;13.520;2022-10-31T04:29:25;15.40;;;9.75;;
22164;SDS011;11248;52.512;13.520;2022-10-31T04:31:51;13.07;;;8.70;;
22164;SDS011;11248;52.512;13.520;2022-10-31T04:34:16;14.95;;;9.40;;
22164;SDS011;11248;52.512;13.520;2022-10-31T04:36:42;14.77;;;9.75;;
22164;SDS011;11248;52.512;13.520;2022-10-31T04:39:08;15.35;;;9.80;;
22164;SDS011;11248;52.512;13.520;2022-10-31T04:41:34;13.90;;;9.20;;
22164;SDS011;11248;52.512;13.520;2022-10-31T04:44:00;14.65;;;9.45;;
22164;SDS011;11248;52.512;13.520;2022-10-31T04:46:26;16.90;;;10.50;;
22164;SDS011;11248;52.512;13.520;2022-10-31T04:48:52;15.88;;;10.68;;
22164;SDS011;11248;52.512;13.520;2022-10-31T04:51:18;14.70;;;9.95;;
22164;SDS011;11248;52.512;13.520;2022-10-31T04:53:44;17.73;;;10.63;;
22164;SDS011;11248;52.512;13.520;2022-10-31T04:56:09;14.80;;;10.35;;
22164;SDS011;11248;52.512;13.520;2022-10-31T04:58:35;16.75;;;10.43;;
22164;SDS011;11248;52.512;13.520;2022-10-31T05:01:01;14.30;;;9.88;;
22164;SDS011;11248;52.512;13.520;2022-10-31T05:03:27;16.83;;;10.45;;
22164;SDS011;11248;52.512;13.520;2022-10-31T05:05:53;15.73;;;10.57;;
22164;SDS011;11248;52.512;13.520;2022-10-31T05:08:19;16.25;;;10.48;;
22164;SDS011;11248;52.512;13.520;2022-10-31T05:10:45;14.40;;;9.00;;
22164;SDS011;11248;52.512;13.520;2022-10-31T05:13:11;14.65;;;9.90;;
22164;SDS011;11248;52.512;13.520;2022-10-31T05:15:37;13.00;;;9.75;;
22164;SDS011;11248;52.512;13.520;2022-10-31T05:18:03;17.73;;;10.80;;
22164;SDS011;11248;52.512;13.520;2022-10-31T05:20:29;13.35;;;9.57;;
22164;SDS011;11248;52.512;13.520;2022-10-31T05:22:56;18.20;;;11.20;;
22164;SDS011;11248;52.512;13.520;2022-10-31T05:25:22;17.13;;;10.45;;
22164;SDS011;11248;52.512;13.520;2022-10-31T05:27:49;17.27;;;9.93;;
22164;SDS011;11248;52.512;13.520;2022-10-31T05:30:17;21.17;;;11.02;;
22164;SDS011;11248;52.512;13.520;2022-10-31T05:32:44;17.27;;;10.73;;
22164;SDS011;11248;52.512;13.520;2022-10-31T05:35:12;17.73;;;10.48;;
22164;SDS011;11248;52.512;13.520;2022-10-31T05:37:39;13.52;;;9.35;;
22164;SDS011;11248;52.512;13.520;2022-10-31T05:40:05;20.63;;;12.82;;
22164;SDS011;11248;52.512;13.520;2022-10-31T05:42:32;16.40;;;10.82;;
22164;SDS011;11248;52.512;13.520;2022-10-31T05:44:58;17.75;;;11.48;;
22164;SDS011;11248;52.512;13.520;2022-10-31T05:47:24;17.63;;;11.23;;
22164;SDS011;11248;52.512;13.520;2022-10-31T05:49:50;14.82;;;10.23;;
22164;SDS011;11248;52.512;13.520;2022-10-31T05:52:16;16.05;;;10.95;;
22164;SDS011;11248;52.512;13.520;2022-10-31T05:54:42;20.88;;;11.13;;
22164;SDS011;11248;52.512;13.520;2022-10-31T05:57:08;19.92;;;11.05;;
22164;SDS011;11248;52.512;13.520;2022-10-31T05:59:34;21.02;;;12.10;;
22164;SDS011;11248;52.512;13.520;2022-10-31T06:02:00;15.68;;;10.75;;
22164;SDS011;11248;52.512;13.520;2022-10-31T06:04:26;16.98;;;10.60;;
22164;SDS011;11248;52.512;13.520;2022-10-31T06:06:52;19.17;;;10.77;;
22164;SDS011;11248;52.512;13.520;2022-10-31T06:09:18;12.88;;;9.80;;
22164;SDS011;11248;52.512;13.520;2022-10-31T06:11:44;19.95;;;11.93;;
22164;SDS011;11248;52.512;13.520;2022-10-31T06:14:09;21.80;;;12.98;;
22164;SDS011;11248;52.512;13.520;2022-10-31T06:16:35;17.05;;;11.60;;
22164;SDS011;11248;52.512;13.520;2022-10-31T06:19:01;18.20;;;10.90;;
22164;SDS011;11248;52.512;13.520;2022-10-31T06:21:27;21.50;;;11.82;;
22164;SDS011;11248;52.512;13.520;2022-10-31T06:23:53;16.23;;;10.98;;
22164;SDS011;11248;52.512;13.520;2022-10-31T06:26:19;12.40;;;10.15;;
22164;SDS011;11248;52.512;13.520;2022-10-31T06:28:45;20.73;;;11.27;;
22164;SDS011;11248;52.512;13.520;2022-10-31T06:31:11;17.88;;;10.73;;
22164;SDS011;11248;52.512;13.520;2022-10-31T06:33:37;16.42;;;11.80;;
22164;SDS011;11248;52.512;13.520;2022-10-31T06:36:03;18.00;;;12.18;;
22164;SDS011;11248;52.512;13.520;2022-10-31T06:38:29;21.10;;;10.98;;
22164;SDS011;11248;52.512;13.520;2022-10-31T06:40:55;19.90;;;10.32;;
22164;SDS011;11248;52.512;13.520;2022-10-31T06:43:21;16.05;;;10.38;;
22164;SDS011;11248;52.512;13.520;2022-10-31T06:45:47;18.70;;;11.52;;
22164;SDS011;11248;52.512;13.520;2022-10-31T06:48:13;19.90;;;11.13;;
22164;SDS011;11248;52.512;13.520;2022-10-31T06:50:39;16.67;;;10.75;;
22164;SDS011;11248;52.512;13.520;2022-10-31T06:53:05;22.40;;;12.70;;
22164;SDS011;11248;52.512;13.520;2022-10-31T06:55:31;18.90;;;12.27;;
22164;SDS011;11248;52.512;13.520;2022-10-31T06:57:58;19.75;;;12.85;;
22164;SDS011;11248;52.512;13.520;2022-10-31T07:00:24;16.90;;;11.70;;
22164;SDS011;11248;52.512;13.520;2022-10-31T07:05:20;18.65;;;12.48;;
22164;SDS011;11248;52.512;13.520;2022-10-31T07:07:46;23.85;;;13.63;;
22164;SDS011;11248;52.512;13.520;2022-10-31T07:10:12;21.58;;;12.63;;
22164;SDS011;11248;52.512;13.520;2022-10-31T07:12:38;18.55;;;10.98;;
22164;SDS011;11248;52.512;13.520;2022-10-31T07:15:04;19.02;;;11.65;;
22164;SDS011;11248;52.512;13.520;2022-10-31T07:17:30;21.15;;;11.65;;
22164;SDS011;11248;52.512;13.520;2022-10-31T07:19:56;20.83;;;11.55;;
22164;SDS011;11248;52.512;13.520;2022-10-31T07:22:22;16.52;;;10.20;;
22164;SDS011;11248;52.512;13.520;2022-10-31T07:24:48;18.80;;;11.30;;
22164;SDS011;11248;52.512;13.520;2022-10-31T07:27:14;16.27;;;11.63;;
22164;SDS011;11248;52.512;13.520;2022-10-31T07:29:40;17.63;;;11.07;;
22164;SDS011;11248;52.512;13.520;2022-10-31T07:32:06;23.45;;;12.23;;
22164;SDS011;11248;52.512;13.520;2022-10-31T07:34:31;21.85;;;11.88;;
22164;SDS011;11248;52.512;13.520;2022-10-31T07:36:57;19.40;;;11.73;;
22164;SDS011;11248;52.512;13.520;2022-10-31T07:39:23;20.00;;;10.90;;
22164;SDS011;11248;52.512;13.520;2022-10-31T07:41:49;20.17;;;12.15;;
22164;SDS011;11248;52.512;13.520;2022-10-31T07:44:15;18.48;;;10.27;;
22164;SDS011;11248;52.512;13.520;2022-10-31T07:46:41;21.33;;;11.93;;
22164;SDS011;11248;52.512;13.520;2022-10-31T07:49:07;16.80;;;10.90;;
22164;SDS011;11248;52.512;13.520;2022-10-31T07:51:33;20.55;;;12.93;;
22164;SDS011;11248;52.512;13.520;2022-10-31T07:53:59;16.85;;;11.10;;
22164;SDS011;11248;52.512;13.520;2022-10-31T07:56:24;17.98;;;11.25;;
22164;SDS011;11248;52.512;13.520;2022-10-31T07:58:50;23.50;;;12.50;;
22164;SDS011;11248;52.512;13.520;2022-10-31T08:01:16;24.60;;;12.50;;
22164;SDS011;11248;52.512;13.520;2022-10-31T08:03:42;24.13;;;13.55;;
22164;SDS011;11248;52.512;13.520;2022-10-31T08:06:08;18.88;;;11.25;;
22164;SDS011;11248;52.512;13.520;2022-10-31T08:08:34;17.30;;;10.57;;
22164;SDS011;11248;52.512;13.520;2022-10-31T08:11:00;18.40;;;11.18;;
22164;SDS011;11248;52.512;13.520;2022-10-31T08:13:26;24.73;;;14.05;;
22164;SDS011;11248;52.512;13.520;2022-10-31T08:15:52;25.88;;;13.35;;
22164;SDS011;11248;52.512;13.520;2022-10-31T08:18:18;19.00;;;12.25;;
22164;SDS011;11248;52.512;13.520;2022-10-31T08:20:46;17.27;;;10.73;;
22164;SDS011;11248;52.512;13.520;2022-10-31T08:23:12;18.80;;;11.27;;
22164;SDS011;11248;52.512;13.520;2022-10-31T08:25:39;20.75;;;11.38;;
22164;SDS011;11248;52.512;13.520;2022-10-31T08:28:05;16.77;;;10.40;;
22164;SDS011;11248;52.512;13.520;2022-10-31T08:30:32;28.67;;;12.25;;
22164;SDS011;11248;52.512;13.520;2022-10-31T08:33:09;23.20;;;12.10;;
22164;SDS011;11248;52.512;13.520;2022-10-31T08:35:35;25.02;;;12.57;;
22164;SDS011;11248;52.512;13.520;2022-10-31T08:38:01;21.38;;;12.20;;
22164;SDS011;11248;52.512;13.520;2022-10-31T08:40:28;18.90;;;11.90;;
22164;SDS011;11248;52.512;13.520;2022-10-31T08:42:58;18.33;;;11.80;;
22164;SDS011;11248;52.512;13.520;2022-10-31T08:45:24;21.25;;;12.65;;
22164;SDS011;11248;52.512;13.520;2022-10-31T08:47:50;18.67;;;11.93;;
22164;SDS011;11248;52.512;13.520;2022-10-31T08:50:16;18.55;;;12.15;;
22164;SDS011;11248;52.512;13.520;2022-10-31T08:52:42;20.67;;;12.57;;
22164;SDS011;11248;52.512;13.520;2022-10-31T08:55:08;19.20;;;10.63;;
22164;SDS011;11248;52.512;13.520;2022-10-31T08:57:34;22.83;;;12.63;;
22164;SDS011;11248;52.512;13.520;2022-10-31T08:59:59;21.25;;;11.82;;
22164;SDS011;11248;52.512;13.520;2022-10-31T09:02:25;23.20;;;13.30;;
22164;SDS011;11248;52.512;13.520;2022-10-31T09:04:51;18.65;;;11.68;;
22164;SDS011;11248;52.512;13.520;2022-10-31T09:07:17;18.98;;;11.90;;
22164;SDS011;11248;52.512;13.520;2022-10-31T09:09:43;19.77;;;11.60;;
22164;SDS011;11248;52.512;13.520;2022-10-31T09:12:09;22.83;;;12.13;;
22164;SDS011;11248;52.512;13.520;2022-10-31T09:14:35;17.33;;;11.88;;
22164;SDS011;11248;52.512;13.520;2022-10-31T09:17:01;23.92;;;13.00;;
22164;SDS011;11248;52.512;13.520;2022-10-31T09:19:26;22.65;;;13.75;;
22164;SDS011;11248;52.512;13.520;2022-10-31T09:21:53;19.42;;;12.82;;
22164;SDS011;11248;52.512;13.520;2022-10-31T09:24:19;19.73;;;12.07;;
22164;SDS011;11248;52.512;13.520;2022-10-31T09:26:45;27.10;;;13.95;;
22164;SDS011;11248;52.512;13.520;2022-10-31T09:29:11;28.63;;;13.50;;
22164;SDS011;11248;52.512;13.520;2022-10-31T09:31:37;22.35;;;13.15;;
22164;SDS011;11248;52.512;13.520;2022-10-31T09:34:03;21.05;;;13.25;;
22164;SDS011;11248;52.512;13.520;2022-10-31T09:36:29;23.50;;;13.23;;
22164;SDS011;11248;52.512;13.520;2022-10-31T09:38:55;17.25;;;12.20;;
22164;SDS011;11248;52.512;13.520;2022-10-31T09:41:34;24.35;;;12.60;;
22164;SDS011;11248;52.512;13.520;2022-10-31T09:44:10;24.23;;;15.60;;
22164;SDS011;11248;52.512;13.520;2022-10-31T09:46:52;27.25;;;15.48;;
22164;SDS011;11248;52.512;13.520;2022-10-31T09:49:36;22.85;;;13.20;;
22164;SDS011;11248;52.512;13.520;2022-10-31T09:52:04;27.60;;;14.95;;
22164;SDS011;11248;52.512;13.520;2022-10-31T09:54:33;27.10;;;16.63;;
22164;SDS011;11248;52.512;13.520;2022-10-31T09:57:00;28.52;;;15.15;;
22164;SDS011;11248;52.512;13.520;2022-10-31T09:59:28;27.00;;;13.90;;
22164;SDS011;11248;52.512;13.520;2022-10-31T10:01:56;25.15;;;14.60;;
22164;SDS011;11248;52.512;13.520;2022-10-31T10:04:38;27.45;;;15.50;;
22164;SDS011;11248;52.512;13.520;2022-10-31T10:07:12;21.77;;;13.98;;
22164;SDS011;11248;52.512;13.520;2022-10-31T10:09:39;23.25;;;13.57;;
22164;SDS011;11248;52.512;13.520;2022-10-31T10:12:29;18.98;;;12.07;;
22164;SDS011;11248;52.512;13.520;2022-10-31T10:15:04;22.83;;;13.18;;
22164;SDS011;11248;52.512;13.520;2022-10-31T10:20:20;24.98;;;13.73;;
22164;SDS011;11248;52.512;13.520;2022-10-31T10:22:55;28.33;;;17.25;;
22164;SDS011;11248;52.512;13.520;2022-10-31T10:27:54;23.90;;;14.50;;
22164;SDS011;11248;52.512;13.520;2022-10-31T10:30:42;23.70;;;14.68;;
22164;SDS011;11248;52.512;13.520;2022-10-31T10:33:12;27.23;;;14.30;;
22164;SDS011;11248;52.512;13.520;2022-10-31T10:35:44;28.77;;;15.93;;
22164;SDS011;11248;52.512;13.520;2022-10-31T10:38:14;27.17;;;15.88;;
22164;SDS011;11248;52.512;13.520;2022-10-31T10:40:41;24.70;;;14.05;;
22164;SDS011;11248;52.512;13.520;2022-10-31T10:43:20;21.25;;;13.05;;
22164;SDS011;11248;52.512;13.520;2022-10-31T10:48:45;22.92;;;13.23;;
22164;SDS011;11248;52.512;13.520;2022-10-31T10:51:19;17.83;;;12.38;;
22164;SDS011;11248;52.512;13.520;2022-10-31T10:53:52;20.10;;;13.75;;
22164;SDS011;11248;52.512;13.520;2022-10-31T10:56:47;29.73;;;17.05;;
22164;SDS011;11248;52.512;13.520;2022-10-31T10:59:15;23.00;;;14.73;;
22164;SDS011;11248;52.512;13.520;2022-10-31T11:01:42;29.83;;;16.45;;
22164;SDS011;11248;52.512;13.520;2022-10-31T11:09:28;23.73;;;14.23;;
22164;SDS011;11248;52.512;13.520;2022-10-31T11:11:55;22.05;;;14.57;;
22164;SDS011;11248;52.512;13.520;2022-10-31T11:14:21;31.58;;;16.77;;
22164;SDS011;11248;52.512;13.520;2022-10-31T11:16:49;27.10;;;17.38;;
22164;SDS011;11248;52.512;13.520;2022-10-31T11:19:22;30.27;;;16.20;;
22164;SDS011;11248;52.512;13.520;2022-10-31T11:21:48;23.63;;;14.20;;
22164;SDS011;11248;52.512;13.520;2022-10-31T11:24:22;25.70;;;15.30;;
22164;SDS011;11248;52.512;13.520;2022-10-31T11:26:49;22.10;;;14.40;;
22164;SDS011;11248;52.512;13.520;2022-10-31T11:29:22;29.50;;;16.60;;
22164;SDS011;11248;52.512;13.520;2022-10-31T11:34:22;31.98;;;22.13;;
22164;SDS011;11248;52.512;13.520;2022-10-31T11:36:50;29.38;;;17.05;;
22164;SDS011;11248;52.512;13.520;2022-10-31T11:39:17;22.77;;;14.27;;
22164;SDS011;11248;52.512;13.520;2022-10-31T11:41:44;26.05;;;16.77;;
22164;SDS011;11248;52.512;13.520;2022-10-31T11:44:15;22.90;;;13.82;;
22164;SDS011;11248;52.512;13.520;2022-10-31T11:46:46;24.60;;;14.18;;
22164;SDS011;11248;52.512;13.520;2022-10-31T11:49:15;22.27;;;13.82;;
22164;SDS011;11248;52.512;13.520;2022-10-31T11:51:42;24.55;;;14.27;;
22164;SDS011;11248;52.512;13.520;2022-10-31T11:54:21;21.50;;;12.82;;
22164;SDS011;11248;52.512;13.520;2022-10-31T11:56:47;23.83;;;13.98;;
22164;SDS011;11248;52.512;13.520;2022-10-31T11:59:31;17.85;;;11.05;;
22164;SDS011;11248;52.512;13.520;2022-10-31T12:01:58;16.15;;;11.15;;
22164;SDS011;11248;52.512;13.520;2022-10-31T12:04:28;16.98;;;10.90;;
22164;SDS011;11248;52.512;13.520;2022-10-31T12:06:55;14.88;;;10.48;;
22164;SDS011;11248;52.512;13.520;2022-10-31T12:09:23;14.38;;;9.65;;
22164;SDS011;11248;52.512;13.520;2022-10-31T12:11:53;18.35;;;10.15;;
22164;SDS011;11248;52.512;13.520;2022-10-31T12:14:38;16.02;;;10.18;;
22164;SDS011;11248;52.512;13.520;2022-10-31T12:17:08;15.43;;;10.70;;
22164;SDS011;11248;52.512;13.520;2022-10-31T12:19:42;17.73;;;10.93;;
22164;SDS011;11248;52.512;13.520;2022-10-31T12:27:37;15.52;;;11.10;;
22164;SDS011;11248;52.512;13.520;2022-10-31T12:30:15;27.13;;;13.93;;
22164;SDS011;11248;52.512;13.520;2022-10-31T12:32:51;18.67;;;10.90;;
22164;SDS011;11248;52.512;13.520;2022-10-31T12:35:30;19.17;;;10.80;;
22164;SDS011;11248;52.512;13.520;2022-10-31T12:38:03;21.80;;;12.70;;
22164;SDS011;11248;52.512;13.520;2022-10-31T12:40:42;17.52;;;11.43;;
22164;SDS011;11248;52.512;13.520;2022-10-31T12:43:55;22.77;;;14.05;;
22164;SDS011;11248;52.512;13.520;2022-10-31T12:46:02;27.52;;;14.27;;
22164;SDS011;11248;52.512;13.520;2022-10-31T12:53:38;23.20;;;13.63;;
22164;SDS011;11248;52.512;13.520;2022-10-31T12:56:15;21.90;;;13.35;;
22164;SDS011;11248;52.512;13.520;2022-10-31T12:58:47;22.65;;;11.20;;
22164;SDS011;11248;52.512;13.520;2022-10-31T13:01:24;21.67;;;13.82;;
22164;SDS011;11248;52.512;13.520;2022-10-31T13:03:53;20.77;;;12.30;;
22164;SDS011;11248;52.512;13.520;2022-10-31T13:06:22;21.52;;;12.07;;
22164;SDS011;11248;52.512;13.520;2022-10-31T13:08:57;20.95;;;12.73;;
22164;SDS011;11248;52.512;13.520;2022-10-31T13:11:26;20.20;;;12.75;;
22164;SDS011;11248;52.512;13.520;2022-10-31T13:13:57;19.55;;;11.93;;
22164;SDS011;11248;52.512;13.520;2022-10-31T13:19:25;19.40;;;11.52;;
22164;SDS011;11248;52.512;13.520;2022-10-31T13:24:22;22.58;;;12.52;;
22164;SDS011;11248;52.512;13.520;2022-10-31T13:26:50;18.48;;;11.32;;
22164;SDS011;11248;52.512;13.520;2022-10-31T13:29:28;18.30;;;11.65;;
22164;SDS011;11248;52.512;13.520;2022-10-31T13:31:55;20.02;;;10.80;;
22164;SDS011;11248;52.512;13.520;2022-10-31T13:34:35;16.85;;;11.55;;
22164;SDS011;11248;52.512;13.520;2022-10-31T13:37:28;17.33;;;10.82;;
22164;SDS011;11248;52.512;13.520;2022-10-31T13:40:03;19.67;;;11.65;;
22164;SDS011;11248;52.512;13.520;2022-10-31T13:42:40;17.77;;;11.18;;
22164;SDS011;11248;52.512;13.520;2022-10-31T13:45:17;21.27;;;12.07;;
22164;SDS011;11248;52.512;13.520;2022-10-31T13:47:43;19.10;;;11.93;;
22164;SDS011;11248;52.512;13.520;2022-10-31T13:50:27;20.10;;;13.10;;
22164;SDS011;11248;52.512;13.520;2022-10-31T13:53:03;16.85;;;11.38;;
22164;SDS011;11248;52.512;13.520;2022-10-31T13:55:45;19.45;;;11.38;;
22164;SDS011;11248;52.512;13.520;2022-10-31T13:58:21;20.00;;;12.68;;
22164;SDS011;11248;52.512;13.520;2022-10-31T14:00:58;21.02;;;12.45;;
22164;SDS011;11248;52.512;13.520;2022-10-31T14:03:24;21.17;;;11.77;;
22164;SDS011;11248;52.512;13.520;2022-10-31T14:05:54;21.02;;;12.63;;
22164;SDS011;11248;52.512;13.520;2022-10-31T14:08:21;22.17;;;12.10;;
22164;SDS011;11248;52.512;13.520;2022-10-31T14:10:49;16.92;;;10.55;;
22164;SDS011;11248;52.512;13.520;2022-10-31T14:13:22;19.20;;;11.25;;
22164;SDS011;11248;52.512;13.520;2022-10-31T14:18:23;24.45;;;11.98;;
22164;SDS011;11248;52.512;13.520;2022-10-31T14:20:49;17.77;;;11.27;;
22164;SDS011;11248;52.512;13.520;2022-10-31T14:25:53;18.50;;;11.18;;
22164;SDS011;11248;52.512;13.520;2022-10-31T14:28:30;19.35;;;11.27;;
22164;SDS011;11248;52.512;13.520;2022-10-31T14:30:57;18.35;;;11.98;;
22164;SDS011;11248;52.512;13.520;2022-10-31T14:33:25;20.52;;;10.98;;
22164;SDS011;11248;52.512;13.520;2022-10-31T14:38:32;18.92;;;11.48;;
22164;SDS011;11248;52.512;13.520;2022-10-31T14:41:16;16.13;;;10.05;;
22164;SDS011;11248;52.512;13.520;2022-10-31T14:44:02;18.55;;;10.48;;
22164;SDS011;11248;52.512;13.520;2022-10-31T14:46:37;18.13;;;10.15;;
22164;SDS011;11248;52.512;13.520;2022-10-31T14:51:35;14.07;;;9.85;;
22164;SDS011;11248;52.512;13.520;2022-10-31T14:54:02;15.38;;;9.93;;
22164;SDS011;11248;52.512;13.520;2022-10-31T14:56:32;17.35;;;10.80;;
22164;SDS011;11248;52.512;13.520;2022-10-31T14:59:00;16.10;;;10.57;;
22164;SDS011;11248;52.512;13.520;2022-10-31T15:01:28;18.92;;;11.13;;
22164;SDS011;11248;52.512;13.520;2022-10-31T15:03:57;17.20;;;11.10;;
22164;SDS011;11248;52.512;13.520;2022-10-31T15:06:24;16.38;;;10.05;;
22164;SDS011;11248;52.512;13.520;2022-10-31T15:08:51;19.35;;;10.73;;
22164;SDS011;11248;52.512;13.520;2022-10-31T15:11:19;14.93;;;10.30;;
22164;SDS011;11248;52.512;13.520;2022-10-31T15:13:46;16.77;;;10.77;;
22164;SDS011;11248;52.512;13.520;2022-10-31T15:16:14;18.20;;;11.10;;
22164;SDS011;11248;52.512;13.520;2022-10-31T15:18:54;17.52;;;11.13;;
22164;SDS011;11248;52.512;13.520;2022-10-31T15:21:21;19.65;;;12.10;;
22164;SDS011;11248;52.512;13.520;2022-10-31T15:23:49;21.40;;;11.90;;
22164;SDS011;11248;52.512;13.520;2022-10-31T15:26:16;16.48;;;11.27;;
22164;SDS011;11248;52.512;13.520;2022-10-31T15:28:43;23.95;;;14.15;;